Bookmark and Share
Track history (hours):
 

Seaboard Caribe

Last reported at 2014-Apr-21 10:33 UTC. Time now 2014-Apr-23 06:59 UTC.
Position N 25°35' W 079°41'.

Length 139 m; draft 5.4 m.

Type: Ship. MMSI: 305350000.

NotesDate/timePositionNaut miles runAvg speedWind from/ knotsBaromVisibWave heightAir tempDewpointWater temp
2014-Apr-21 10:33N 25°35' W 079°41'1414.2
2014-Apr-21 09:33N 25°48' W 079°46'1514.6
2014-Apr-21 08:33N 25°59' W 079°57'1010.4
2014-Apr-21 07:33N 26°04' W 080°07'0 0.3
2014-Apr-21 06:28N 26°04' W 080°07'0 0.0
2014-Apr-21 05:22N 26°04' W 080°07'0 0.0
2014-Apr-21 04:27N 26°04' W 080°07'0 0.0
2014-Apr-21 03:24N 26°04' W 080°07'0 0.0
2014-Apr-21 02:33N 26°04' W 080°07'0 0.0
2014-Apr-21 01:26N 26°04' W 080°07'0 0.0
2014-Apr-21 00:32N 26°04' W 080°07'0 0.0
2014-Apr-20 23:25N 26°04' W 080°07'0 0.0
2014-Apr-20 22:31N 26°04' W 080°07'0 0.0
2014-Apr-20 21:30N 26°04' W 080°07'0 0.0
2014-Apr-20 20:33N 26°04' W 080°07'0 0.0
2014-Apr-20 19:33N 26°04' W 080°07'0 0.0
2014-Apr-20 18:23N 26°04' W 080°07'0 0.0
2014-Apr-20 17:31N 26°04' W 080°07'2 2.3
2014-Apr-20 16:33N 26°06' W 080°05'5 4.6
2014-Apr-20 15:33N 26°02' W 080°02'3 3.0
2014-Apr-20 14:33N 26°04' W 079°59'1 1.2
2014-Apr-20 13:33N 26°04' W 079°58'3 3.0
2014-Apr-20 12:33N 26°03' W 079°55'1414.0
2014-Apr-20 11:33N 25°51' W 079°46'10 9.8
2014-Apr-20 10:33N 25°42' W 079°42'  
2014-Apr-14 14:33N 25°33' W 079°40'1313.1
2014-Apr-14 13:34N 25°46' W 079°43'2813.9
2014-Apr-14 11:34N 26°06' W 080°05'2 2.2
2014-Apr-14 10:34N 26°04' W 080°07'0 0.0
2014-Apr-14 09:30N 26°04' W 080°07'0 0.0
2014-Apr-14 07:32N 26°04' W 080°07'0 0.0
2014-Apr-14 05:31N 26°04' W 080°07'28 4.1
2014-Apr-13 22:33N 25°46' W 079°43'  

Dump ship's entire track history

sailing weather and tide predictions

Seaboard Caribe — V2DV8 — position and weather